ADDS METAR Data INFO
IDs: Format: Raw Decoded Include TAF

Data at: 2333 UTC 18 Feb 2018

KSHR 182329Z AUTO 31012KT 1/2SM SN FZFG VV014 M14/M17 A2985 RMK AO2 P0001 T11441167
KSHR 182324Z AUTO 31013KT 3/4SM -SN BR VV016 M14/M17 A2985 RMK AO2 P0001 T11441167
KSHR 182307Z AUTO 32013KT 1/2SM -SN FZFG BKN024 OVC034 M14/M17 A2984 RMK AO2 P0000 T11441167
KSHR 182253Z AUTO 31012KT 1 1/2SM -SN BKN020 BKN033 OVC042 M14/M17 A2984 RMK AO2 SLP164 P0002 T11391167
KSHR 182241Z AUTO 31013KT 3/4SM -SN BR VV015 M14/M16 A2982 RMK AO2 P0002 T11391161
KSHR 182233Z AUTO 31013KT 1/2SM SN VV013 M14/M17 A2982 RMK AO2 P0002 T11391167
KSHR 182214Z AUTO 32014KT 3/4SM -SN BR VV013 M14/M16 A2980 RMK AO2 P0001 T11391161
KSHR 182153Z AUTO 32013KT 3/4SM -SN VV016 M14/M17 A2980 RMK AO2 SLP151 P0001 T11391167
KSHR 182141Z AUTO 32012KT 1SM -SN BR BKN018 OVC024 M14/M16 A2979 RMK AO2 P0001 T11391161
KSHR 182132Z AUTO 31014KT 3/4SM -SN BKN016 OVC023 M14/M17 A2979 RMK AO2 P0001 T11391167
KSHR 182113Z AUTO 31016KT 1SM -SN BR BKN016 OVC025 M14/M16 A2978 RMK AO2 P0000 T11391161
KSHR 182105Z AUTO 30016KT 3/4SM -SN BR VV016 M14/M16 A2979 RMK AO2 P0000 T11391161
KSHR 182053Z AUTO 30014KT 3/4SM -SN BR VV014 M14/M16 A2978 RMK AO2 SLP144 P0002 60007 T11391161 50002
KSHR 182027Z AUTO 31014KT 1/2SM SN FZFG VV011 M14/M16 A2979 RMK AO2 P0001 T11391161
KSHR 182013Z AUTO 30015KT 1/2SM SN FZFG VV009 M14/M16 A2979 RMK AO2 P0001 T11391161
KSHR 181953Z AUTO 30016KT 1/4SM SN FZFG VV008 M13/M16 A2979 RMK AO2 SLP150 P0003 T11331156
KSHR 181946Z AUTO 29012KT 1/2SM SN FZFG VV009 M13/M16 A2979 RMK AO2 P0003 T11331156
KSHR 181907Z AUTO 29012KT 1/2SM SN FZFG VV014 M13/M16 A2977 RMK AO2 P0001 T11331156
KSHR 181853Z AUTO 30013KT 3/4SM -SN BR VV014 M13/M16 A2977 RMK AO2 SLP141 P0002 T11331156
KSHR 181851Z AUTO 31012KT 3/4SM -SN BR VV014 M13/M16 A2977 RMK AO2 P0002
KSHR 181823Z AUTO 31015KT 1/2SM SN FZFG VV013 M13/M15 A2977 RMK AO2 P0001 T11331150
KSHR 181801Z AUTO 32015KT 1/2SM -SN FZFG VV018 M13/M16 A2976 RMK AO2 P0000 T11331156
KSHR 181753Z AUTO 32016KT 3/4SM -SN BR VV016 M13/M15 A2975 RMK AO2 SLP134 P0003 60016 T11331150 11033 21133 53006
KSHR 181748Z AUTO 32016KT 3/4SM -SN BR VV015 M13/M15 A2975 RMK AO2 P0003
KSHR 181734Z AUTO 32014KT 1/2SM SN FZFG VV010 M13/M15 A2975 RMK AO2 P0003 T11281150
KSHR 181727Z AUTO 31014KT 1/4SM SN FZFG VV009 M13/M14 A2975 RMK AO2 P0002 T11281144
KSHR 181653Z AUTO 32012KT 1/2SM SN FZFG VV011 M12/M14 A2973 RMK AO2 SLP124 P0004 T11171139
KSHR 181651Z AUTO 32013KT 1/2SM SN FZFG VV011 M12/M13 A2973 RMK AO2 P0004
KSHR 181625Z AUTO 33012KT 1/2SM SN FZFG VV008 M11/M13 A2972 RMK AO2 P0003 T11111128
KSHR 181553Z AUTO 32016KT 1/4SM SN FZFG VV007 M11/M12 A2971 RMK AO2 SLP116 P0003 T11061122
KSHR 181453Z AUTO 31017G25KT 1/4SM SN FZFG VV008 M10/M12 A2968 RMK AO2 PK WND 32027/1419 SLP101 P0003 60006 T11001117 53022
KSHR 181446Z AUTO 31019KT 1/4SM SN FZFG VV008 M10/M12 A2967 RMK AO2 PK WND 32027/1419 P0002 T11001117
KSHR 181353Z AUTO 32020G29KT 1/2SM SN FZFG VV006 M09/M11 A2964 RMK AO2 PK WND 32029/1348 SLP086 P0003 T10941106
KSHR 181337Z AUTO 31020KT 1/2SM SN FZFG VV009 M09/M11 A2964 RMK AO2 PK WND 31029/1302 P0002 T10891106
KSHR 181329Z AUTO 31019KT 3/4SM -SN BR VV012 M09/M10 A2963 RMK AO2 PK WND 31029/1302 P0001 T10891100
KSHR 181310Z AUTO 31018G29KT 3/4SM -SN BR VV018 M08/M10 A2962 RMK AO2 PK WND 31029/1302 P0001 T10831100
KSHR 181253Z AUTO 32022G32KT 1SM -SN BR BKN021 OVC028 M08/M09 A2961 RMK AO2 PK WND 31041/1154 SLP070 P0000 T10781094
KSHR 181225Z AUTO 31021G32KT 1SM -SN BR BKN018 OVC026 M07/M08 A2958 RMK AO2 PK WND 31041/1154 PRESRR P0000 T10721083
KSHR 181212Z AUTO 32029G38KT 1/2SM -SN FZFG FEW006 OVC010 M07/M08 A2955 RMK AO2 PK WND 31041/1154 P0000 T10721083
KSHR 181153Z AUTO 30029G36KT 1/2SM SN FZFG VV007 M03/M03 A2953 RMK AO2 PK WND 31036/1153 PRESRR SLP034 P0005 60009 70010 T10281033 11017 21061 53026
KSHR 181150Z AUTO 31015G19KT 3/4SM -SN BR VV008 M02/M02 A2953 RMK AO2 PRESRR P0005
KSHR 181145Z AUTO 00000KT 1SM -SN BR VV010 M02/M03 A2950 RMK AO2 P0005 T10171028
KSHR 181113Z AUTO 00000KT 3/4SM -SN BR VV009 M02/M03 A2947 RMK AO2 P0002 T10221033
KSHR 181102Z AUTO 00000KT 3/4SM -SN BR VV011 M02/M03 A2947 RMK AO2 P0001 T10221033
KSHR 181053Z AUTO 00000KT 1SM -SN BR SCT011 OVC017 M03/M03 A2948 RMK AO2 SLP009 P0004 T10281033
KSHR 181040Z AUTO 28003KT 1 1/4SM -SN BR BKN021 BKN025 OVC042 M02/M03 A2947 RMK AO2 P0002 T10171028
KSHR 181021Z AUTO 20007KT 2 1/2SM -SN BR BKN019 BKN027 OVC042 M03/M04 A2947 RMK AO2 P0002 T10281039
KSHR 180953Z AUTO 18009KT 1 1/2SM -SN BR SCT011 BKN017 OVC022 M04/M06 A2949 RMK AO2 SNB16 SLP014 P0000 T10391056
KSHR 180951Z AUTO 17009KT 1 3/4SM -SN BR SCT011 BKN017 OVC022 M04/M06 A2949 RMK AO2 SNB16 P0000
KSHR 180948Z AUTO 17011KT 2SM -SN BR BKN011 OVC022 M04/M06 A2949 RMK AO2 SNB16 P0000
KSHR 180926Z AUTO 18006KT 5SM -SN BR BKN021 BKN055 OVC070 M04/M06 A2950 RMK AO2 SNB16 P0000 T10391056
KSHR 180853Z AUTO 33014KT 10SM BKN080 OVC100 M04/M07 A2945 RMK AO2 PRESRR SLP002 T10441067 53005
KSHR 180753Z AUTO VRB03KT 10SM FEW100 M06/M07 A2939 RMK AO2 SLP985 T10561067
KSHR 180653Z AUTO 33006KT 10SM CLR M05/M07 A2941 RMK AO2 SLP992 T10501072 400171061
KSHR 180553Z AUTO 00000KT 10SM CLR M05/M07 A2943 RMK AO2 SLP002 T10501067 11022 21056 56023
KSHR 180453Z AUTO 00000KT 10SM CLR M05/M07 A2944 RMK AO2 SLP010 T10501067
KSHR 180353Z AUTO VRB03KT 10SM CLR M05/M07 A2946 RMK AO2 SLP019 T10501067
KSHR 180253Z AUTO 19003KT 10SM CLR M04/M07 A2951 RMK AO2 SLP032 T10391067 58043
KSHR 180153Z AUTO 26004KT 10SM CLR M03/M06 A2956 RMK AO2 SLP049 T10331061
KSHR 180053Z AUTO 30004KT 10SM CLR M03/M06 A2960 RMK AO2 SLP062 T10281056
KSHR 172353Z AUTO 33007KT 10SM CLR M02/M06 A2965 RMK AO2 SLP077 T10221056 10017 21022 56037
KSHR 172253Z AUTO 04005KT 10SM FEW120 01/M04 A2969 RMK AO2 SLP084 T00111044
KSHR 172153Z AUTO 11009KT 10SM FEW120 02/M04 A2971 RMK AO2 SLP089 T00171044
KSHR 172053Z AUTO 12006KT 10SM BKN110 01/M05 A2977 RMK AO2 SLP112 T00061050 58037
KSHR 171953Z AUTO 14008KT 10SM CLR 00/M05 A2982 RMK AO2 SLP128 T00001050
KSHR 171853Z AUTO 14014G18KT 10SM CLR M01/M06 A2987 RMK AO2 SLP151 T10111056
KSHR 171753Z AUTO 00000KT 10SM CLR M02/M06 A2990 RMK AO2 SLP159 60001 T10171061 11017 21056 58018
KSHR 171653Z AUTO 15005KT 10SM SCT080 BKN090 BKN110 M04/M06 A2993 RMK AO2 SLP176 T10391061
KSHR 171553Z AUTO 21004KT 10SM OVC085 M05/M06 A2996 RMK AO2 SLP188 T10501061
KSHR 171453Z AUTO 00000KT 10SM OVC070 M05/M06 A2995 RMK AO2 SNB1359E08 SLP191 P0000 60001 T10501061 50000
KSHR 171353Z AUTO 00000KT 7SM OVC055 M04/M06 A2996 RMK AO2 SNE47 SLP192 P0000 T10441056
KSHR 171253Z AUTO 26004KT 3SM -SN BR OVC032 M04/M05 A2996 RMK AO2 SLP190 P0001 T10391050
KSHR 171246Z AUTO 25003KT 3SM -SN BR OVC030 M04/M05 A2996 RMK AO2 P0001 T10391050
KSHR 171235Z AUTO 26005KT 2 1/2SM -SN BR BKN026 OVC034 M04/M05 A2997 RMK AO2 P0000 T10391050
KSHR 171222Z AUTO 28006KT 3SM -SN BR BKN022 OVC034 M04/M05 A2997 RMK AO2 P0000 T10391050
KSHR 171217Z AUTO 28007KT 2SM -SN BR SCT020 OVC034 M04/M04 A2997 RMK AO2 P0000 T10391044
KSHR 171206Z AUTO 27007KT 1 3/4SM -SN BR BKN018 OVC034 M04/M04 A2996 RMK AO2 P0000 T10391044
KSHR 171153Z AUTO 28005KT 2SM -SN BR SCT020 OVC032 M03/M04 A2995 RMK AO2 SNB04 SLP184 P0001 60003 70003 T10331044 10006 21044 53015
KSHR 171143Z AUTO 29006KT 2 1/2SM -SN BR BKN019 OVC030 M03/M04 A2995 RMK AO2 SNB04 P0001 T10331044